San Jose, Costa Rica
Current Conditions -  °F | °C
As of 9:00 AM on Monday 22 Dec 2014 (Local Time) from MROC Reporting Station
Clear Clear  
Wind Chill: 77°   Ceiling: Unl
Heat Index: 79°   Visibility: 6mi
Dew Point: 55°   Wind: 12mph
Humidity: 47%   Direction: 110°ESE
Pressure: 30.01"   Gusts: 23mph
Location:  10°N, 84.22°W
Report Text: MROC 221500Z 11010G20KT CAVOK 25/13 A3001 NOSIG
Loading
Personal Weather Stations






























Interactive Weather Map New forecast layout! Learn more

10-Day Weather Forecast

Advertisements
Track Severe Weather on mobile